createdAt,value
2019-03-12T00:02:11.521Z,100.00
2019-03-12T00:04:41.489Z,100.00
2019-03-12T00:07:11.287Z,100.00
2019-03-12T00:09:41.113Z,100.00
2019-03-12T00:12:11.047Z,100.00
2019-03-12T00:14:43.776Z,100.00
2019-03-12T00:17:13.717Z,100.00
2019-03-12T00:19:43.522Z,100.00
2019-03-12T00:22:14.564Z,100.00
2019-03-12T00:24:44.839Z,100.00
2019-03-12T00:27:16.562Z,100.00
2019-03-12T00:29:48.586Z,100.00
2019-03-12T00:32:20.638Z,100.00
2019-03-12T00:34:54.967Z,100.00
2019-03-12T00:37:25.877Z,100.00
2019-03-12T00:39:57.946Z,100.00
2019-03-12T00:42:27.743Z,100.00
2019-03-12T00:45:00.082Z,100.00
2019-03-12T00:47:30.726Z,100.00
2019-03-12T00:50:11.250Z,100.00
2019-03-12T00:52:58.885Z,100.00
2019-03-12T00:55:30.772Z,100.00
2019-03-12T00:58:01.839Z,100.00
2019-03-12T01:00:37.349Z,100.00
2019-03-12T01:03:13.643Z,99.35
2019-03-12T01:05:45.716Z,99.08
2019-03-12T01:08:16.170Z,98.75
2019-03-12T01:10:46.397Z,98.38
2019-03-12T01:13:18.325Z,98.59
2019-03-12T01:15:48.233Z,97.57
2019-03-12T01:18:18.869Z,96.81
2019-03-12T01:20:50.926Z,96.78
2019-03-12T01:23:23.220Z,96.29
2019-03-12T01:26:00.076Z,96.08
2019-03-12T01:28:31.555Z,94.41
2019-03-12T01:31:01.551Z,94.54
2019-03-12T01:33:31.325Z,94.78
2019-03-12T01:36:01.484Z,94.51
2019-03-12T01:38:31.287Z,94.76
2019-03-12T01:41:01.234Z,94.46
2019-03-12T01:43:35.030Z,94.76
2019-03-12T01:46:05.497Z,94.10
2019-03-12T01:48:35.373Z,94.37
2019-03-12T01:51:06.091Z,94.01
2019-03-12T01:53:35.931Z,94.26
2019-03-12T01:56:06.297Z,93.75
2019-03-12T01:58:36.055Z,92.12
2019-03-12T02:01:05.863Z,92.40
2019-03-12T02:03:38.971Z,92.25
2019-03-12T02:06:09.300Z,92.35
2019-03-12T02:08:40.731Z,91.06
2019-03-12T02:11:12.031Z,90.39
2019-03-12T02:13:42.010Z,89.20
2019-03-12T02:16:15.706Z,89.58
2019-03-12T02:18:49.866Z,89.02
2019-03-12T02:21:20.859Z,90.27
2019-03-12T02:23:52.410Z,89.81
2019-03-12T02:26:26.001Z,88.84
2019-03-12T02:28:57.394Z,88.88
2019-03-12T02:31:34.572Z,87.29
2019-03-12T02:34:04.358Z,87.28
2019-03-12T02:36:37.490Z,86.96
2019-03-12T02:39:08.768Z,85.92
2019-03-12T02:41:45.007Z,86.25
2019-03-12T02:44:18.197Z,85.93
2019-03-12T02:46:48.104Z,86.12
2019-03-12T02:49:18.254Z,86.14
2019-03-12T02:51:48.080Z,86.07
2019-03-12T02:54:18.638Z,85.50
2019-03-12T02:56:48.487Z,85.80
2019-03-12T02:59:20.221Z,86.14
2019-03-12T03:01:50.034Z,85.61
2019-03-12T03:04:21.089Z,85.85
2019-03-12T03:06:53.278Z,84.69
2019-03-12T03:09:24.896Z,85.01
2019-03-12T03:11:54.861Z,85.30
2019-03-12T03:14:36.940Z,85.60
2019-03-12T03:17:08.662Z,86.25
2019-03-12T03:19:43.088Z,86.28
2019-03-12T03:22:12.810Z,85.61
2019-03-12T03:24:47.081Z,85.72
2019-03-12T03:27:21.003Z,85.52
2019-03-12T03:29:51.353Z,85.96
2019-03-12T03:32:21.130Z,86.44
2019-03-12T03:34:54.839Z,86.78
2019-03-12T03:37:24.604Z,86.47
2019-03-12T03:39:54.903Z,85.87
2019-03-12T03:42:24.974Z,86.54
2019-03-12T03:44:55.541Z,87.04
2019-03-12T03:47:25.469Z,86.80
2019-03-12T03:49:58.264Z,87.50
2019-03-12T03:52:36.197Z,88.74
2019-03-12T03:55:15.077Z,88.82
2019-03-12T03:57:45.918Z,89.41
2019-03-12T04:00:28.327Z,89.93
2019-03-12T04:03:00.802Z,89.71
2019-03-12T04:05:31.899Z,88.91
2019-03-12T04:08:02.365Z,88.38
2019-03-12T04:10:33.519Z,87.92
2019-03-12T04:13:08.350Z,88.01
2019-03-12T04:15:40.359Z,87.93
2019-03-12T04:18:16.662Z,88.18
2019-03-12T04:20:52.190Z,87.96
2019-03-12T04:23:24.522Z,88.49
2019-03-12T04:25:54.293Z,88.05
2019-03-12T04:28:27.793Z,88.79
2019-03-12T04:30:58.253Z,89.16
2019-03-12T04:34:01.643Z,89.24
2019-03-12T04:36:37.760Z,89.23
2019-03-12T04:39:09.060Z,88.65
2019-03-12T04:41:43.709Z,88.11
2019-03-12T04:44:15.089Z,87.33
2019-03-12T04:46:50.445Z,87.21
2019-03-12T04:49:25.700Z,88.04
2019-03-12T04:51:55.724Z,87.93
2019-03-12T04:54:27.199Z,88.62
2019-03-12T04:56:57.509Z,89.21
2019-03-12T04:59:27.321Z,89.27
2019-03-12T05:01:58.988Z,88.79
2019-03-12T05:04:29.746Z,89.78
2019-03-12T05:06:59.685Z,88.51
2019-03-12T05:09:29.645Z,88.18
2019-03-12T05:11:59.587Z,87.77
2019-03-12T05:14:37.046Z,86.75
2019-03-12T05:17:10.093Z,86.30
2019-03-12T05:19:41.586Z,86.62
2019-03-12T05:22:13.815Z,86.71
2019-03-12T05:24:44.107Z,86.53
2019-03-12T05:27:18.095Z,87.06
2019-03-12T05:29:51.106Z,86.63
2019-03-12T05:32:24.644Z,85.72
2019-03-12T05:34:58.766Z,85.94
2019-03-12T05:37:31.060Z,86.24
2019-03-12T05:40:05.349Z,85.90
2019-03-12T05:42:38.804Z,85.90
2019-03-12T05:45:14.347Z,85.02
2019-03-12T05:47:50.956Z,83.71
2019-03-12T05:50:21.960Z,82.44
2019-03-12T05:53:05.157Z,81.28
2019-03-12T05:55:34.986Z,79.34
2019-03-12T05:58:05.251Z,79.71
2019-03-12T06:00:38.148Z,76.33
2019-03-12T06:03:07.937Z,72.04
2019-03-12T06:05:41.494Z,71.75
2019-03-12T06:08:11.252Z,69.74
2019-03-12T06:10:42.280Z,69.50
2019-03-12T06:13:12.149Z,69.50
2019-03-12T06:15:42.021Z,67.30
2019-03-12T06:18:11.929Z,66.87
2019-03-12T06:20:44.035Z,65.74
2019-03-12T06:23:22.192Z,61.52
2019-03-12T06:25:53.278Z,61.54
2019-03-12T06:28:24.799Z,60.75
2019-03-12T06:31:11.833Z,56.11
2019-03-12T06:34:02.554Z,56.11
2019-03-12T06:36:43.804Z,57.41
2019-03-12T06:39:29.316Z,57.26
2019-03-12T06:42:04.215Z,56.84
2019-03-12T06:44:55.652Z,52.10
2019-03-12T06:47:36.323Z,51.75
2019-03-12T06:50:12.403Z,50.69
2019-03-12T06:52:43.759Z,48.86
2019-03-12T06:55:17.935Z,47.94
2019-03-12T06:58:02.340Z,50.26
2019-03-12T07:00:43.767Z,50.27
2019-03-12T07:03:32.931Z,45.78
2019-03-12T07:06:09.159Z,45.58
2019-03-12T07:08:46.886Z,44.48
2019-03-12T07:11:37.352Z,42.15
2019-03-12T07:14:18.221Z,39.21
2019-03-12T07:17:02.533Z,38.80
2019-03-12T07:19:52.535Z,40.20
2019-03-12T07:22:29.347Z,37.55
2019-03-12T07:25:15.628Z,37.48
2019-03-12T07:27:55.593Z,36.28
2019-03-12T07:30:32.630Z,36.23
2019-03-12T07:33:11.642Z,35.97
2019-03-12T07:35:48.548Z,35.59
2019-03-12T07:38:23.590Z,35.81
2019-03-12T07:41:23.562Z,36.22
2019-03-12T07:43:47.637Z,34.28
2019-03-12T07:46:26.628Z,32.99
2019-03-12T07:49:18.297Z,33.60
2019-03-12T07:51:50.954Z,32.72
2019-03-12T07:54:32.994Z,30.91
2019-03-12T07:57:22.192Z,31.63
2019-03-12T08:00:06.347Z,31.78
2019-03-12T08:02:58.890Z,28.78
2019-03-12T08:05:39.051Z,30.60
2019-03-12T08:08:23.894Z,30.76
2019-03-12T08:10:58.606Z,30.27
2019-03-12T08:13:33.824Z,29.60
2019-03-12T08:16:06.474Z,29.83
2019-03-12T08:19:02.082Z,30.07
2019-03-12T08:21:41.196Z,32.34
2019-03-12T08:24:22.605Z,32.28
2019-03-12T08:27:10.079Z,31.07
2019-03-12T08:29:42.467Z,30.51
2019-03-12T08:32:23.735Z,29.00
2019-03-12T08:34:57.234Z,29.59
2019-03-12T08:37:39.259Z,30.04
2019-03-12T08:40:17.359Z,29.71
2019-03-12T08:42:55.093Z,34.38
2019-03-12T08:45:30.897Z,33.08
2019-03-12T08:51:07.947Z,28.57
2019-03-12T08:53:41.434Z,29.39
2019-03-12T08:56:21.494Z,27.70
2019-03-12T08:58:56.308Z,27.25
2019-03-12T09:01:47.385Z,28.61
2019-03-12T09:04:19.438Z,25.02
2019-03-12T09:06:55.500Z,27.17
2019-03-12T09:09:37.717Z,26.68
2019-03-12T09:12:17.010Z,27.56
2019-03-12T09:14:50.068Z,25.70
2019-03-12T09:17:28.205Z,26.79
2019-03-12T09:20:02.156Z,26.28
2019-03-12T09:22:40.436Z,27.87
2019-03-12T09:25:25.329Z,27.20
2019-03-12T09:28:08.610Z,25.56
2019-03-12T09:30:44.173Z,26.41
2019-03-12T09:33:23.612Z,23.72
2019-03-12T09:36:10.103Z,26.35
2019-03-12T09:38:42.493Z,26.08
2019-03-12T09:41:17.863Z,26.50
2019-03-12T09:43:55.643Z,29.54
2019-03-12T09:46:42.509Z,25.51
2019-03-12T09:49:15.180Z,27.42
2019-03-12T09:51:54.145Z,25.39
2019-03-12T09:54:26.493Z,25.88
2019-03-12T09:57:10.953Z,25.87
2019-03-12T09:59:43.326Z,25.84
2019-03-12T10:02:19.716Z,23.24
2019-03-12T10:04:54.839Z,25.00
2019-03-12T10:07:27.064Z,25.54
2019-03-12T10:10:03.486Z,24.63
2019-03-12T10:12:41.149Z,27.21
2019-03-12T10:15:18.028Z,25.45
2019-03-12T10:18:02.686Z,26.18
2019-03-12T10:20:35.414Z,24.54
2019-03-12T10:23:11.967Z,25.92
2019-03-12T10:25:53.074Z,25.01
2019-03-12T10:28:40.793Z,22.92
2019-03-12T10:31:13.358Z,22.54
2019-03-12T10:33:48.488Z,24.10
2019-03-12T10:36:35.256Z,27.41
2019-03-12T10:39:47.736Z,22.08
2019-03-12T10:42:23.053Z,22.27
2019-03-12T10:45:10.260Z,26.04
2019-03-12T10:47:45.326Z,23.23
2019-03-12T10:50:17.731Z,21.53
2019-03-12T10:52:49.413Z,23.93
2019-03-12T10:55:21.637Z,23.10
2019-03-12T10:57:53.463Z,21.54
2019-03-12T11:00:25.009Z,19.65
2019-03-12T11:02:55.244Z,20.84
2019-03-12T11:05:27.848Z,22.44
2019-03-12T11:07:58.721Z,21.61
2019-03-12T11:10:30.536Z,24.08
2019-03-12T11:13:03.336Z,21.60
2019-03-12T11:15:33.635Z,21.57
2019-03-12T11:18:05.071Z,21.81
2019-03-12T11:20:37.682Z,20.10
2019-03-12T11:23:10.076Z,20.11
2019-03-12T11:25:44.093Z,20.63
2019-03-12T11:28:34.124Z,22.61
2019-03-12T11:31:12.371Z,20.31
2019-03-12T11:33:43.570Z,23.02
2019-03-12T11:36:14.145Z,21.08
2019-03-12T11:38:44.641Z,22.05
2019-03-12T11:41:15.513Z,22.29
2019-03-12T11:43:46.462Z,22.88
2019-03-12T11:46:17.631Z,20.54
2019-03-12T11:48:49.341Z,20.19
2019-03-12T11:51:21.407Z,21.66
2019-03-12T11:53:57.265Z,23.63
2019-03-12T11:56:30.207Z,21.40
2019-03-12T11:59:02.440Z,21.20
2019-03-12T12:01:33.727Z,21.67
2019-03-12T12:04:06.176Z,22.62
2019-03-12T12:06:42.561Z,25.05
2019-03-12T12:09:12.012Z,21.94
2019-03-12T12:11:43.993Z,21.60
2019-03-12T12:14:16.001Z,24.54
2019-03-12T12:16:47.433Z,22.18
2019-03-12T12:19:18.588Z,23.51
2019-03-12T12:21:51.233Z,21.44
2019-03-12T12:24:22.636Z,24.76
2019-03-12T12:26:53.753Z,20.89
2019-03-12T12:29:24.657Z,20.44
2019-03-12T12:31:56.411Z,21.06
2019-03-12T12:34:29.494Z,21.23
2019-03-12T12:37:02.498Z,20.73
2019-03-12T12:39:40.853Z,20.69
2019-03-12T12:42:24.127Z,19.79
2019-03-12T12:45:00.855Z,21.71
2019-03-12T12:47:42.429Z,20.13
2019-03-12T12:50:32.772Z,20.68
2019-03-12T12:53:17.568Z,19.42
2019-03-12T12:55:56.090Z,20.17
2019-03-12T12:58:43.360Z,20.32
2019-03-12T13:01:38.398Z,19.78
2019-03-12T13:04:04.119Z,19.49
2019-03-12T13:06:38.771Z,19.60
2019-03-12T13:09:28.335Z,20.45
2019-03-12T13:12:02.919Z,20.13
2019-03-12T13:14:41.760Z,20.60
2019-03-12T13:17:21.477Z,20.84
2019-03-12T13:19:58.953Z,21.32
2019-03-12T13:22:36.999Z,21.60
2019-03-12T13:25:15.032Z,22.75
2019-03-12T13:27:56.621Z,20.54
2019-03-12T13:30:43.576Z,20.17
2019-03-12T13:33:20.311Z,20.28
2019-03-12T13:36:04.103Z,19.45
2019-03-12T13:38:46.913Z,18.69
2019-03-12T13:41:28.767Z,19.10
2019-03-12T13:44:09.801Z,19.96
2019-03-12T13:46:54.938Z,20.58
2019-03-12T13:49:30.965Z,19.84
2019-03-12T13:52:13.009Z,21.03
2019-03-12T13:55:08.302Z,20.73
2019-03-12T13:57:44.916Z,18.83
2019-03-12T14:00:25.657Z,18.39
2019-03-12T14:03:10.665Z,20.83
2019-03-12T14:05:50.035Z,21.77
2019-03-12T14:08:32.936Z,21.78
2019-03-12T14:11:06.803Z,20.19
2019-03-12T14:13:44.516Z,19.50
2019-03-12T14:16:16.278Z,20.09
2019-03-12T14:18:46.767Z,21.64
2019-03-12T14:21:21.906Z,22.25
2019-03-12T14:24:09.290Z,22.01
2019-03-12T14:26:42.274Z,21.03
2019-03-12T14:29:13.449Z,23.90
2019-03-12T14:31:45.454Z,25.11
2019-03-12T14:34:17.077Z,24.04
2019-03-12T14:36:48.938Z,24.57
2019-03-12T14:39:20.573Z,23.60
2019-03-12T14:41:52.316Z,24.61
2019-03-12T14:44:23.394Z,23.99
2019-03-12T14:46:57.446Z,24.99
2019-03-12T14:49:30.496Z,23.81
2019-03-12T14:52:05.827Z,23.31
2019-03-12T14:54:39.161Z,23.95
2019-03-12T14:57:09.473Z,23.34
2019-03-12T14:59:40.034Z,22.92
2019-03-12T15:02:11.051Z,22.88
2019-03-12T15:04:42.238Z,23.56
2019-03-12T15:07:14.772Z,23.97
2019-03-12T15:09:45.987Z,23.15
2019-03-12T15:12:18.322Z,22.69
2019-03-12T15:14:53.129Z,23.67
2019-03-12T15:17:25.277Z,23.32
2019-03-12T15:19:58.521Z,22.96
2019-03-12T15:22:31.423Z,22.38
2019-03-12T15:25:05.597Z,21.54
2019-03-12T15:27:43.570Z,22.28
2019-03-12T15:30:23.158Z,22.73
2019-03-12T15:32:57.240Z,22.54
2019-03-12T15:35:32.297Z,23.24
2019-03-12T15:38:07.686Z,23.65
2019-03-12T15:40:42.190Z,23.66
2019-03-12T15:43:16.157Z,22.55
2019-03-12T15:45:49.494Z,22.45
2019-03-12T15:48:24.859Z,23.55
2019-03-12T15:50:59.340Z,23.19
2019-03-12T15:53:35.897Z,24.65
2019-03-12T15:56:08.890Z,22.89
2019-03-12T15:58:42.825Z,24.01
2019-03-12T16:01:18.964Z,22.54
2019-03-12T16:03:50.888Z,22.70
2019-03-12T16:06:26.390Z,22.38
2019-03-12T16:08:59.732Z,23.35
2019-03-12T16:11:34.606Z,23.04
2019-03-12T16:14:07.314Z,23.69
2019-03-12T16:16:41.612Z,23.32
2019-03-12T16:19:13.902Z,22.79
2019-03-12T16:21:46.226Z,23.85
2019-03-12T16:24:20.169Z,24.87
2019-03-12T16:26:54.796Z,25.28
2019-03-12T16:29:28.776Z,24.53
2019-03-12T16:32:00.687Z,25.16
2019-03-12T16:34:36.380Z,25.74
2019-03-12T16:37:08.990Z,24.19
2019-03-12T16:39:40.535Z,24.10
2019-03-12T16:42:10.741Z,24.64
2019-03-12T16:44:42.441Z,25.06
2019-03-12T16:47:13.085Z,26.06
2019-03-12T16:49:45.107Z,25.46
2019-03-12T16:52:16.727Z,26.01
2019-03-12T16:54:51.454Z,25.22
2019-03-12T16:57:23.171Z,25.24
2019-03-12T16:59:54.387Z,25.75
2019-03-12T17:02:26.364Z,26.57
2019-03-12T17:04:59.343Z,26.95
2019-03-12T17:07:32.398Z,27.25
2019-03-12T17:10:05.342Z,27.19
2019-03-12T17:12:39.629Z,27.11
2019-03-12T17:15:19.704Z,27.07
2019-03-12T17:17:59.580Z,26.37
2019-03-12T17:20:44.547Z,25.96
2019-03-12T17:23:21.347Z,25.32
2019-03-12T17:25:57.105Z,25.71
2019-03-12T17:28:33.123Z,26.02
2019-03-12T17:31:11.053Z,26.17
2019-03-12T17:33:44.637Z,26.14
2019-03-12T17:36:18.450Z,26.08
2019-03-12T17:38:52.018Z,26.34
2019-03-12T17:41:24.097Z,26.72
2019-03-12T17:44:01.041Z,26.78
2019-03-12T17:46:36.416Z,26.76
2019-03-12T17:49:08.805Z,26.72
2019-03-12T17:51:42.302Z,27.02
2019-03-12T17:54:31.926Z,27.87
2019-03-12T17:57:04.405Z,27.57
2019-03-12T17:59:37.289Z,28.64
2019-03-12T18:02:10.329Z,29.12
2019-03-12T18:04:41.827Z,28.30
2019-03-12T18:07:14.860Z,29.10
2019-03-12T18:09:47.271Z,29.17
2019-03-12T18:12:21.867Z,29.74
2019-03-12T18:14:56.658Z,30.00
2019-03-12T18:17:30.442Z,30.58
2019-03-12T18:20:04.761Z,29.45
2019-03-12T18:22:39.214Z,30.14
2019-03-12T18:25:25.138Z,30.81
2019-03-12T18:28:01.894Z,29.36
2019-03-12T18:30:40.894Z,30.50
2019-03-12T18:33:29.107Z,29.98
2019-03-12T18:36:08.227Z,30.57
2019-03-12T18:38:55.005Z,29.17
2019-03-12T18:41:43.658Z,29.20
2019-03-12T18:44:26.449Z,29.72
2019-03-12T18:47:06.215Z,30.19
2019-03-12T18:49:48.441Z,31.77
2019-03-12T18:52:28.067Z,30.64
2019-03-12T18:55:22.228Z,33.97
2019-03-12T18:58:06.047Z,31.72
2019-03-12T19:00:51.646Z,30.28
2019-03-12T19:03:33.913Z,30.28
2019-03-12T19:06:18.818Z,29.83
2019-03-12T19:09:02.332Z,29.83
2019-03-12T19:11:48.788Z,29.72
2019-03-12T19:14:26.899Z,29.72
2019-03-12T19:17:05.450Z,29.54
2019-03-12T19:19:43.393Z,29.39
2019-03-12T19:22:29.519Z,29.72
2019-03-12T19:25:17.725Z,29.48
2019-03-12T19:28:13.643Z,29.37
2019-03-12T19:30:58.191Z,29.59
2019-03-12T19:33:40.609Z,29.55
2019-03-12T19:36:18.027Z,29.75
2019-03-12T19:39:00.194Z,30.85
2019-03-12T19:41:49.571Z,31.45
2019-03-12T19:44:29.149Z,30.19
2019-03-12T19:47:15.600Z,30.16
2019-03-12T19:49:53.213Z,29.72
2019-03-12T19:52:39.815Z,29.95
2019-03-12T19:55:23.537Z,30.53
2019-03-12T19:58:06.750Z,31.20
2019-03-12T20:00:48.243Z,31.92
2019-03-12T20:03:28.185Z,31.37
2019-03-12T20:06:19.074Z,32.05
2019-03-12T20:09:09.922Z,32.37
2019-03-12T20:11:59.474Z,32.00
2019-03-12T20:14:58.440Z,32.00
2019-03-12T20:18:14.887Z,31.75
2019-03-12T20:20:59.982Z,33.32
2019-03-12T20:23:59.411Z,33.82
2019-03-12T20:26:48.162Z,34.18
2019-03-12T20:30:09.341Z,34.89
2019-03-12T20:33:21.307Z,34.97
2019-03-12T20:36:31.293Z,34.46
2019-03-12T20:39:39.278Z,34.75
2019-03-12T20:42:37.748Z,35.23
2019-03-12T20:45:19.860Z,34.54
2019-03-12T20:48:11.709Z,35.00
2019-03-12T20:51:19.067Z,36.21
2019-03-12T20:54:00.333Z,35.87
2019-03-12T20:57:19.601Z,35.76
2019-03-12T21:00:47.306Z,37.35
2019-03-12T21:03:51.659Z,36.93
2019-03-12T21:07:14.356Z,37.78
2019-03-12T21:10:21.721Z,39.51
2019-03-12T21:13:39.323Z,38.00
2019-03-12T21:16:37.905Z,37.73
2019-03-12T21:19:54.232Z,36.64
2019-03-12T21:23:03.347Z,36.64
2019-03-12T21:26:24.975Z,36.28
2019-03-12T21:29:30.529Z,38.88
2019-03-12T21:32:22.667Z,38.88
2019-03-12T21:35:12.931Z,38.86
2019-03-12T21:38:08.957Z,39.21
2019-03-12T21:40:59.340Z,41.24
2019-03-12T21:43:52.879Z,41.24
2019-03-12T21:46:40.377Z,43.07
2019-03-12T21:49:38.425Z,43.76
2019-03-12T21:52:31.242Z,44.34
2019-03-12T21:55:12.689Z,45.54
2019-03-12T21:57:56.337Z,45.38
2019-03-12T22:00:42.449Z,46.31
2019-03-12T22:03:34.264Z,46.86
2019-03-12T22:06:35.522Z,46.86
2019-03-12T22:09:28.648Z,48.82
2019-03-12T22:12:29.065Z,49.29
2019-03-12T22:15:22.570Z,49.17
2019-03-12T22:18:14.969Z,49.17
2019-03-12T22:21:10.611Z,48.63
2019-03-12T22:24:01.538Z,48.97
2019-03-12T22:27:09.460Z,48.57
2019-03-12T22:30:05.452Z,48.42
2019-03-12T22:32:59.957Z,48.90
2019-03-12T22:35:48.050Z,49.53
2019-03-12T22:38:33.456Z,48.34
2019-03-12T22:41:10.498Z,48.42
2019-03-12T22:43:58.925Z,47.95
2019-03-12T22:46:33.543Z,47.74
2019-03-12T22:49:12.342Z,48.37
2019-03-12T22:51:58.419Z,48.09
2019-03-12T22:54:32.836Z,47.88
2019-03-12T22:57:25.802Z,47.58
2019-03-12T23:00:34.960Z,46.08
2019-03-12T23:03:30.560Z,46.48
2019-03-12T23:06:45.221Z,46.95
2019-03-12T23:10:02.290Z,47.24
2019-03-12T23:12:57.162Z,47.16
2019-03-12T23:15:52.399Z,45.25
2019-03-12T23:18:45.161Z,44.44
2019-03-12T23:21:17.873Z,45.06
2019-03-12T23:24:08.864Z,45.90
2019-03-12T23:26:50.401Z,47.59
2019-03-12T23:29:33.427Z,48.91
2019-03-12T23:32:27.252Z,48.89
2019-03-12T23:34:59.227Z,48.67
2019-03-12T23:37:31.578Z,47.62
2019-03-12T23:40:17.125Z,47.86
2019-03-12T23:42:58.495Z,49.35
2019-03-12T23:45:29.279Z,49.33
2019-03-12T23:48:00.358Z,47.46
2019-03-12T23:50:37.507Z,47.42
2019-03-12T23:53:26.267Z,45.38
2019-03-12T23:56:00.042Z,45.61
2019-03-12T23:58:32.952Z,47.51
